sensor_id;sensor_type;location;lat;lon;timestamp;pressure;altitude;pressure_sealevel;temperature;humidity
49541;BME280;35432;43.566;1.398;2023-03-18T00:00:59;99590.09;;;12.20;nan
49541;BME280;35432;43.566;1.398;2023-03-18T00:03:32;99576.97;;;12.19;nan
49541;BME280;35432;43.566;1.398;2023-03-18T00:06:15;99585.78;;;12.18;nan
49541;BME280;35432;43.566;1.398;2023-03-18T00:08:41;99583.75;;;12.29;nan
49541;BME280;35432;43.566;1.398;2023-03-18T00:11:08;99572.31;;;12.29;nan
49541;BME280;35432;43.566;1.398;2023-03-18T00:13:35;99581.16;;;12.28;nan
49541;BME280;35432;43.566;1.398;2023-03-18T00:16:02;99595.00;;;12.38;nan
49541;BME280;35432;43.566;1.398;2023-03-18T00:18:28;99582.78;;;12.35;nan
49541;BME280;35432;43.566;1.398;2023-03-18T00:20:54;99585.34;;;12.37;nan
49541;BME280;35432;43.566;1.398;2023-03-18T00:23:19;99581.94;;;12.33;nan
49541;BME280;35432;43.566;1.398;2023-03-18T00:25:47;99585.34;;;12.37;nan
49541;BME280;35432;43.566;1.398;2023-03-18T00:28:13;99581.81;;;12.38;nan
49541;BME280;35432;43.566;1.398;2023-03-18T00:30:39;99578.19;;;12.42;nan
49541;BME280;35432;43.566;1.398;2023-03-18T00:33:06;99593.09;;;12.44;nan
49541;BME280;35432;43.566;1.398;2023-03-18T00:35:32;99599.28;;;12.45;nan
49541;BME280;35432;43.566;1.398;2023-03-18T00:37:57;99592.38;;;12.38;nan
49541;BME280;35432;43.566;1.398;2023-03-18T00:40:23;99580.72;;;12.48;nan
49541;BME280;35432;43.566;1.398;2023-03-18T00:42:55;99573.69;;;12.47;nan
49541;BME280;35432;43.566;1.398;2023-03-18T00:45:33;99568.28;;;12.53;nan
49541;BME280;35432;43.566;1.398;2023-03-18T00:48:01;99578.94;;;12.48;nan
49541;BME280;35432;43.566;1.398;2023-03-18T00:50:26;99574.53;;;12.49;nan
49541;BME280;35432;43.566;1.398;2023-03-18T00:52:52;99579.06;;;12.42;nan
49541;BME280;35432;43.566;1.398;2023-03-18T00:55:18;99578.94;;;12.48;nan
49541;BME280;35432;43.566;1.398;2023-03-18T00:57:44;99567.44;;;12.51;nan
49541;BME280;35432;43.566;1.398;2023-03-18T01:00:10;99587.66;;;12.52;nan
49541;BME280;35432;43.566;1.398;2023-03-18T01:02:36;99578.03;;;12.49;nan
49541;BME280;35432;43.566;1.398;2023-03-18T01:05:03;99578.75;;;12.56;nan
49541;BME280;35432;43.566;1.398;2023-03-18T01:07:28;99569.03;;;12.58;nan
49541;BME280;35432;43.566;1.398;2023-03-18T01:09:54;99577.03;;;12.55;nan
49541;BME280;35432;43.566;1.398;2023-03-18T01:12:19;99576.28;;;12.48;nan
49541;BME280;35432;43.566;1.398;2023-03-18T01:14:45;99573.66;;;12.48;nan
49541;BME280;35432;43.566;1.398;2023-03-18T01:17:11;99558.56;;;12.54;nan
49541;BME280;35432;43.566;1.398;2023-03-18T01:19:37;99574.38;;;12.55;nan
49541;BME280;35432;43.566;1.398;2023-03-18T01:22:02;99569.31;;;12.46;nan
49541;BME280;35432;43.566;1.398;2023-03-18T01:24:28;99570.41;;;12.37;nan
49541;BME280;35432;43.566;1.398;2023-03-18T01:26:54;99571.25;;;12.38;nan
49541;BME280;35432;43.566;1.398;2023-03-18T01:29:19;99579.97;;;12.43;nan
49541;BME280;35432;43.566;1.398;2023-03-18T01:31:47;99574.69;;;12.43;nan
49541;BME280;35432;43.566;1.398;2023-03-18T01:34:13;99574.72;;;12.40;nan
49541;BME280;35432;43.566;1.398;2023-03-18T01:36:38;99580.81;;;12.43;nan
49541;BME280;35432;43.566;1.398;2023-03-18T01:39:05;99583.34;;;12.48;nan
49541;BME280;35432;43.566;1.398;2023-03-18T01:41:31;99576.41;;;12.44;nan
49541;BME280;35432;43.566;1.398;2023-03-18T01:43:56;99565.91;;;12.41;nan
49541;BME280;35432;43.566;1.398;2023-03-18T01:46:44;99565.78;;;12.47;nan
49541;BME280;35432;43.566;1.398;2023-03-18T01:49:16;99569.03;;;12.58;nan
49541;BME280;35432;43.566;1.398;2023-03-18T01:51:47;99563.78;;;12.57;nan
49541;BME280;35432;43.566;1.398;2023-03-18T01:54:14;99578.59;;;12.64;nan
49541;BME280;35432;43.566;1.398;2023-03-18T01:56:42;99559.19;;;12.65;nan
49541;BME280;35432;43.566;1.398;2023-03-18T01:59:08;99561.84;;;12.63;nan
49541;BME280;35432;43.566;1.398;2023-03-18T02:01:51;99570.66;;;12.64;nan
49541;BME280;35432;43.566;1.398;2023-03-18T02:04:20;99573.13;;;12.72;nan
49541;BME280;35432;43.566;1.398;2023-03-18T02:06:47;99571.31;;;12.74;nan
49541;BME280;35432;43.566;1.398;2023-03-18T02:09:12;99573.94;;;12.74;nan
49541;BME280;35432;43.566;1.398;2023-03-18T02:11:42;99577.50;;;12.73;nan
49541;BME280;35432;43.566;1.398;2023-03-18T02:14:10;99567.03;;;12.68;nan
49541;BME280;35432;43.566;1.398;2023-03-18T02:16:43;99578.34;;;12.73;nan
49541;BME280;35432;43.566;1.398;2023-03-18T02:27:26;99654.38;;;12.98;nan
49541;BME280;35432;43.566;1.398;2023-03-18T02:29:59;99664.88;;;13.01;nan
49541;BME280;35432;43.566;1.398;2023-03-18T02:32:27;99673.63;;;13.05;nan
49541;BME280;35432;43.566;1.398;2023-03-18T02:34:55;99663.84;;;13.09;nan
49541;BME280;35432;43.566;1.398;2023-03-18T02:37:21;99669.91;;;13.12;nan
49541;BME280;35432;43.566;1.398;2023-03-18T02:39:46;99678.69;;;13.14;nan
49541;BME280;35432;43.566;1.398;2023-03-18T02:42:12;99685.66;;;13.18;nan
49541;BME280;35432;43.566;1.398;2023-03-18T02:44:41;99686.50;;;13.19;nan
49541;BME280;35432;43.566;1.398;2023-03-18T02:47:13;99681.19;;;13.20;nan
49541;BME280;35432;43.566;1.398;2023-03-18T02:49:41;99677.78;;;13.15;nan
49541;BME280;35432;43.566;1.398;2023-03-18T02:52:07;99675.41;;;13.04;nan
49541;BME280;35432;43.566;1.398;2023-03-18T02:54:32;99674.44;;;13.09;nan
49541;BME280;35432;43.566;1.398;2023-03-18T02:56:58;99678.06;;;13.04;nan
49541;BME280;35432;43.566;1.398;2023-03-18T02:59:23;99677.09;;;13.07;nan
49541;BME280;35432;43.566;1.398;2023-03-18T03:01:51;99673.59;;;13.06;nan
49541;BME280;35432;43.566;1.398;2023-03-18T03:04:19;99674.44;;;13.07;nan
49541;BME280;35432;43.566;1.398;2023-03-18T03:06:45;99673.63;;;13.05;nan
49541;BME280;35432;43.566;1.398;2023-03-18T03:09:13;99664.84;;;13.04;nan
49541;BME280;35432;43.566;1.398;2023-03-18T03:11:40;99664.78;;;13.06;nan
49541;BME280;35432;43.566;1.398;2023-03-18T03:14:08;99662.25;;;13.01;nan
49541;BME280;35432;43.566;1.398;2023-03-18T03:16:33;99657.75;;;13.05;nan
49541;BME280;35432;43.566;1.398;2023-03-18T03:18:59;99671.88;;;13.04;nan
49541;BME280;35432;43.566;1.398;2023-03-18T03:21:24;99670.06;;;13.06;nan
49541;BME280;35432;43.566;1.398;2023-03-18T03:23:50;99675.34;;;13.06;nan
49541;BME280;35432;43.566;1.398;2023-03-18T03:26:16;99671.72;;;13.10;nan
49541;BME280;35432;43.566;1.398;2023-03-18T03:28:42;99661.16;;;13.10;nan
49541;BME280;35432;43.566;1.398;2023-03-18T03:31:08;99654.22;;;13.06;nan
49541;BME280;35432;43.566;1.398;2023-03-18T03:33:37;99639.44;;;12.97;nan
49541;BME280;35432;43.566;1.398;2023-03-18T03:36:07;99624.66;;;12.88;nan
49541;BME280;35432;43.566;1.398;2023-03-18T03:38:33;99623.06;;;12.83;nan
49541;BME280;35432;43.566;1.398;2023-03-18T03:40:58;99623.88;;;12.85;nan
49541;BME280;35432;43.566;1.398;2023-03-18T03:43:24;99619.69;;;12.76;nan
49541;BME280;35432;43.566;1.398;2023-03-18T03:45:49;99627.63;;;12.74;nan
49541;BME280;35432;43.566;1.398;2023-03-18T03:48:15;99628.59;;;12.72;nan
49541;BME280;35432;43.566;1.398;2023-03-18T03:50:40;99644.53;;;12.69;nan
49541;BME280;35432;43.566;1.398;2023-03-18T03:53:07;99637.31;;;12.75;nan
49541;BME280;35432;43.566;1.398;2023-03-18T03:55:32;99639.91;;;12.77;nan
49541;BME280;35432;43.566;1.398;2023-03-18T03:57:58;99631.91;;;12.80;nan
49541;BME280;35432;43.566;1.398;2023-03-18T04:00:27;99635.47;;;12.77;nan
49541;BME280;35432;43.566;1.398;2023-03-18T04:02:52;99635.63;;;12.73;nan
49541;BME280;35432;43.566;1.398;2023-03-18T04:05:20;99646.03;;;12.79;nan
49541;BME280;35432;43.566;1.398;2023-03-18T04:07:47;99648.78;;;12.74;nan
49541;BME280;35432;43.566;1.398;2023-03-18T04:10:14;99648.84;;;12.71;nan
49541;BME280;35432;43.566;1.398;2023-03-18T04:12:41;99650.59;;;12.72;nan
49541;BME280;35432;43.566;1.398;2023-03-18T04:15:07;99653.06;;;12.80;nan
49541;BME280;35432;43.566;1.398;2023-03-18T04:17:34;99652.25;;;12.76;nan
49541;BME280;35432;43.566;1.398;2023-03-18T04:19:59;99664.59;;;12.76;nan
49541;BME280;35432;43.566;1.398;2023-03-18T04:22:25;99658.41;;;12.77;nan
49541;BME280;35432;43.566;1.398;2023-03-18T04:24:50;99661.03;;;12.78;nan
49541;BME280;35432;43.566;1.398;2023-03-18T04:27:16;99670.72;;;12.78;nan
49541;BME280;35432;43.566;1.398;2023-03-18T04:29:43;99667.09;;;12.82;nan
49541;BME280;35432;43.566;1.398;2023-03-18T04:32:09;99665.44;;;12.78;nan
49541;BME280;35432;43.566;1.398;2023-03-18T04:34:34;99660.31;;;12.72;nan
49541;BME280;35432;43.566;1.398;2023-03-18T04:37:01;99659.22;;;12.81;nan
49541;BME280;35432;43.566;1.398;2023-03-18T04:39:28;99658.50;;;12.74;nan
49541;BME280;35432;43.566;1.398;2023-03-18T04:41:53;99659.34;;;12.74;nan
49541;BME280;35432;43.566;1.398;2023-03-18T04:44:21;99659.34;;;12.74;nan
49541;BME280;35432;43.566;1.398;2023-03-18T04:46:47;99650.59;;;12.72;nan
49541;BME280;35432;43.566;1.398;2023-03-18T04:49:12;99657.78;;;12.66;nan
49541;BME280;35432;43.566;1.398;2023-03-18T04:51:38;99653.41;;;12.64;nan
49541;BME280;35432;43.566;1.398;2023-03-18T04:54:04;99651.47;;;12.73;nan
49541;BME280;35432;43.566;1.398;2023-03-18T04:56:30;99654.25;;;12.67;nan
49541;BME280;35432;43.566;1.398;2023-03-18T04:58:56;99664.78;;;12.68;nan
49541;BME280;35432;43.566;1.398;2023-03-18T05:01:21;99664.78;;;12.68;nan
49541;BME280;35432;43.566;1.398;2023-03-18T05:03:47;99667.47;;;12.67;nan
49541;BME280;35432;43.566;1.398;2023-03-18T05:06:24;99670.38;;;12.54;nan
49541;BME280;35432;43.566;1.398;2023-03-18T05:08:51;99665.00;;;12.57;nan
49541;BME280;35432;43.566;1.398;2023-03-18T05:11:17;99657.91;;;12.61;nan
49541;BME280;35432;43.566;1.398;2023-03-18T05:13:43;99667.78;;;12.51;nan
49541;BME280;35432;43.566;1.398;2023-03-18T05:16:08;99661.59;;;12.52;nan
49541;BME280;35432;43.566;1.398;2023-03-18T05:18:34;99662.59;;;12.48;nan
49541;BME280;35432;43.566;1.398;2023-03-18T05:21:00;99671.34;;;12.50;nan
49541;BME280;35432;43.566;1.398;2023-03-18T05:23:25;99673.16;;;12.48;nan
49541;BME280;35432;43.566;1.398;2023-03-18T05:25:51;99680.94;;;12.54;nan
49541;BME280;35432;43.566;1.398;2023-03-18T05:28:16;99679.09;;;12.58;nan
49541;BME280;35432;43.566;1.398;2023-03-18T05:30:42;99686.22;;;12.53;nan
49541;BME280;35432;43.566;1.398;2023-03-18T05:33:07;99691.41;;;12.59;nan
49541;BME280;35432;43.566;1.398;2023-03-18T05:35:33;99691.41;;;12.59;nan
49541;BME280;35432;43.566;1.398;2023-03-18T05:37:58;99690.50;;;12.60;nan
49541;BME280;35432;43.566;1.398;2023-03-18T05:40:24;99677.38;;;12.57;nan
49541;BME280;35432;43.566;1.398;2023-03-18T05:42:49;99690.44;;;12.61;nan
49541;BME280;35432;43.566;1.398;2023-03-18T05:45:14;99690.38;;;12.64;nan
49541;BME280;35432;43.566;1.398;2023-03-18T05:47:40;99701.97;;;12.59;nan
49541;BME280;35432;43.566;1.398;2023-03-18T05:50:06;99703.66;;;12.61;nan
49541;BME280;35432;43.566;1.398;2023-03-18T05:52:31;99704.56;;;12.60;nan
49541;BME280;35432;43.566;1.398;2023-03-18T05:54:56;99706.22;;;12.64;nan
49541;BME280;35432;43.566;1.398;2023-03-18T05:57:22;99704.47;;;12.65;nan
49541;BME280;35432;43.566;1.398;2023-03-18T05:59:47;99694.75;;;12.66;nan
49541;BME280;35432;43.566;1.398;2023-03-18T06:02:13;99692.13;;;12.66;nan
49541;BME280;35432;43.566;1.398;2023-03-18T06:04:38;99694.75;;;12.66;nan
49541;BME280;35432;43.566;1.398;2023-03-18T06:07:04;99690.38;;;12.64;nan
49541;BME280;35432;43.566;1.398;2023-03-18T06:09:30;99692.25;;;12.59;nan
49541;BME280;35432;43.566;1.398;2023-03-18T06:11:57;99693.97;;;12.62;nan
49541;BME280;35432;43.566;1.398;2023-03-18T06:14:23;99684.31;;;12.59;nan
49541;BME280;35432;43.566;1.398;2023-03-18T06:16:53;99694.06;;;12.57;nan
49541;BME280;35432;43.566;1.398;2023-03-18T06:19:20;99687.09;;;12.53;nan
49541;BME280;35432;43.566;1.398;2023-03-18T06:21:46;99687.97;;;12.54;nan
49541;BME280;35432;43.566;1.398;2023-03-18T06:24:12;99684.44;;;12.55;nan
49541;BME280;35432;43.566;1.398;2023-03-18T06:26:39;99684.47;;;12.53;nan
49541;BME280;35432;43.566;1.398;2023-03-18T06:29:06;99681.81;;;12.53;nan
49541;BME280;35432;43.566;1.398;2023-03-18T06:31:33;99681.84;;;12.52;nan
49541;BME280;35432;43.566;1.398;2023-03-18T06:33:58;99688.88;;;12.53;nan
49541;BME280;35432;43.566;1.398;2023-03-18T06:36:24;99689.00;;;12.48;nan
49541;BME280;35432;43.566;1.398;2023-03-18T06:38:49;99691.72;;;12.43;nan
49541;BME280;35432;43.566;1.398;2023-03-18T06:41:15;99684.69;;;12.44;nan
49541;BME280;35432;43.566;1.398;2023-03-18T06:43:41;99688.25;;;12.41;nan
49541;BME280;35432;43.566;1.398;2023-03-18T06:46:07;99685.59;;;12.43;nan
49541;BME280;35432;43.566;1.398;2023-03-18T06:48:32;99683.81;;;12.42;nan
49541;BME280;35432;43.566;1.398;2023-03-18T06:50:59;99683.88;;;12.40;nan
49541;BME280;35432;43.566;1.398;2023-03-18T06:53:25;99680.31;;;12.41;nan
49541;BME280;35432;43.566;1.398;2023-03-18T06:55:51;99682.16;;;12.38;nan
49541;BME280;35432;43.566;1.398;2023-03-18T06:58:18;99681.22;;;12.40;nan
49541;BME280;35432;43.566;1.398;2023-03-18T07:00:43;99687.25;;;12.47;nan
49541;BME280;35432;43.566;1.398;2023-03-18T07:03:09;99683.63;;;12.51;nan
49541;BME280;35432;43.566;1.398;2023-03-18T07:05:35;99694.94;;;12.58;nan
49541;BME280;35432;43.566;1.398;2023-03-18T07:08:01;99698.28;;;12.64;nan
49541;BME280;35432;43.566;1.398;2023-03-18T07:10:28;99700.81;;;12.71;nan
49541;BME280;35432;43.566;1.398;2023-03-18T07:12:55;99705.91;;;12.80;nan
49541;BME280;35432;43.566;1.398;2023-03-18T07:15:22;99696.97;;;12.86;nan
49541;BME280;35432;43.566;1.398;2023-03-18T07:17:48;99694.91;;;12.99;nan
49541;BME280;35432;43.566;1.398;2023-03-18T07:20:15;99693.59;;;13.17;nan
49541;BME280;35432;43.566;1.398;2023-03-18T07:22:42;99704.06;;;13.21;nan
49541;BME280;35432;43.566;1.398;2023-03-18T07:25:08;99695.31;;;13.19;nan
49541;BME280;35432;43.566;1.398;2023-03-18T07:27:34;99690.78;;;13.25;nan
49541;BME280;35432;43.566;1.398;2023-03-18T07:30:00;99690.44;;;13.39;nan
49541;BME280;35432;43.566;1.398;2023-03-18T07:32:26;99694.84;;;13.38;nan
49541;BME280;35432;43.566;1.398;2023-03-18T07:34:54;99690.94;;;13.55;nan
49541;BME280;35432;43.566;1.398;2023-03-18T07:37:19;99684.81;;;13.53;nan
49541;BME280;35432;43.566;1.398;2023-03-18T07:39:45;99698.78;;;13.58;nan
49541;BME280;35432;43.566;1.398;2023-03-18T07:42:11;99694.19;;;13.66;nan
49541;BME280;35432;43.566;1.398;2023-03-18T07:44:36;99701.03;;;13.75;nan
49541;BME280;35432;43.566;1.398;2023-03-18T07:47:03;99701.16;;;13.70;nan
49541;BME280;35432;43.566;1.398;2023-03-18T07:49:29;99706.91;;;13.85;nan
49541;BME280;35432;43.566;1.398;2023-03-18T07:51:55;99710.28;;;14.25;nan
49541;BME280;35432;43.566;1.398;2023-03-18T07:54:21;99705.59;;;14.95;nan
49541;BME280;35432;43.566;1.398;2023-03-18T07:56:48;99699.84;;;16.15;nan
49541;BME280;35432;43.566;1.398;2023-03-18T07:59:13;99695.84;;;17.20;nan
49541;BME280;35432;43.566;1.398;2023-03-18T08:01:39;99698.91;;;17.54;nan
49541;BME280;35432;43.566;1.398;2023-03-18T08:04:05;99699.94;;;18.14;nan
49541;BME280;35432;43.566;1.398;2023-03-18T08:06:31;99692.91;;;18.32;nan
49541;BME280;35432;43.566;1.398;2023-03-18T08:08:57;99698.50;;;18.65;nan
49541;BME280;35432;43.566;1.398;2023-03-18T08:11:23;99695.69;;;18.49;nan
49541;BME280;35432;43.566;1.398;2023-03-18T08:13:49;99699.00;;;18.93;nan
49541;BME280;35432;43.566;1.398;2023-03-18T08:16:15;99696.94;;;19.00;nan
49541;BME280;35432;43.566;1.398;2023-03-18T08:18:40;99700.94;;;19.63;nan
49541;BME280;35432;43.566;1.398;2023-03-18T08:21:06;99687.25;;;20.56;nan
49541;BME280;35432;43.566;1.398;2023-03-18T08:23:32;99685.47;;;21.82;nan
49541;BME280;35432;43.566;1.398;2023-03-18T08:25:57;99679.31;;;22.96;nan
49541;BME280;35432;43.566;1.398;2023-03-18T08:28:24;99676.97;;;24.12;nan
49541;BME280;35432;43.566;1.398;2023-03-18T08:30:57;99672.81;;;24.58;nan
49541;BME280;35432;43.566;1.398;2023-03-18T08:33:25;99667.84;;;25.27;nan
49541;BME280;35432;43.566;1.398;2023-03-18T08:36:15;99692.69;;;24.69;nan
49541;BME280;35432;43.566;1.398;2023-03-18T08:38:40;99677.25;;;25.45;nan
49541;BME280;35432;43.566;1.398;2023-03-18T08:41:05;99687.22;;;26.03;nan
49541;BME280;35432;43.566;1.398;2023-03-18T08:43:35;99689.50;;;26.44;nan
49541;BME280;35432;43.566;1.398;2023-03-18T08:46:01;99690.31;;;26.78;nan
49541;BME280;35432;43.566;1.398;2023-03-18T08:48:26;99691.97;;;27.46;nan
49541;BME280;35432;43.566;1.398;2023-03-18T08:50:52;99694.03;;;28.70;nan
49541;BME280;35432;43.566;1.398;2023-03-18T08:53:20;99690.47;;;29.79;nan
49541;BME280;35432;43.566;1.398;2023-03-18T08:55:46;99691.72;;;29.75;nan
49541;BME280;35432;43.566;1.398;2023-03-18T08:58:12;99693.03;;;29.51;nan
49541;BME280;35432;43.566;1.398;2023-03-18T09:00:41;99702.31;;;28.16;nan
49541;BME280;35432;43.566;1.398;2023-03-18T09:03:07;99706.13;;;27.06;nan
49541;BME280;35432;43.566;1.398;2023-03-18T09:05:34;99707.25;;;26.46;nan
49541;BME280;35432;43.566;1.398;2023-03-18T09:07:59;99708.38;;;26.89;nan
49541;BME280;35432;43.566;1.398;2023-03-18T09:10:26;99701.84;;;27.36;nan
49541;BME280;35432;43.566;1.398;2023-03-18T09:12:52;99689.41;;;27.99;nan
49541;BME280;35432;43.566;1.398;2023-03-18T09:15:18;99694.88;;;26.89;nan
49541;BME280;35432;43.566;1.398;2023-03-18T09:17:45;99695.38;;;26.26;nan
49541;BME280;35432;43.566;1.398;2023-03-18T09:20:13;99695.09;;;25.59;nan
49541;BME280;35432;43.566;1.398;2023-03-18T09:22:40;99696.25;;;24.69;nan
49541;BME280;35432;43.566;1.398;2023-03-18T09:25:07;99695.19;;;24.46;nan
49541;BME280;35432;43.566;1.398;2023-03-18T09:27:35;99710.09;;;24.26;nan
49541;BME280;35432;43.566;1.398;2023-03-18T09:30:01;99709.28;;;23.98;nan
49541;BME280;35432;43.566;1.398;2023-03-18T09:32:30;99706.16;;;24.56;nan
49541;BME280;35432;43.566;1.398;2023-03-18T09:34:56;99699.50;;;24.61;nan
49541;BME280;35432;43.566;1.398;2023-03-18T09:37:21;99712.44;;;24.56;nan
49541;BME280;35432;43.566;1.398;2023-03-18T09:39:47;99705.94;;;24.59;nan
49541;BME280;35432;43.566;1.398;2023-03-18T09:44:59;99703.78;;;25.14;nan
49541;BME280;35432;43.566;1.398;2023-03-18T09:47:47;99688.50;;;24.64;nan
49541;BME280;35432;43.566;1.398;2023-03-18T09:55:58;99705.53;;;26.45;nan
49541;BME280;35432;43.566;1.398;2023-03-18T10:00:59;99687.41;;;27.79;nan
49541;BME280;35432;43.566;1.398;2023-03-18T10:03:42;99682.44;;;28.27;nan
49541;BME280;35432;43.566;1.398;2023-03-18T10:06:21;99677.44;;;29.14;nan
49541;BME280;35432;43.566;1.398;2023-03-18T10:08:54;99685.75;;;29.42;nan
49541;BME280;35432;43.566;1.398;2023-03-18T10:11:29;99681.00;;;29.34;nan
49541;BME280;35432;43.566;1.398;2023-03-18T10:20:00;99680.72;;;29.28;nan
49541;BME280;35432;43.566;1.398;2023-03-18T10:36:18;99671.06;;;29.45;nan
49541;BME280;35432;43.566;1.398;2023-03-18T10:38:52;99676.56;;;29.04;nan
49541;BME280;35432;43.566;1.398;2023-03-18T10:43:48;99696.81;;;26.87;nan
49541;BME280;35432;43.566;1.398;2023-03-18T10:46:17;99689.69;;;26.63;nan
49541;BME280;35432;43.566;1.398;2023-03-18T10:48:51;99692.59;;;27.06;nan
49541;BME280;35432;43.566;1.398;2023-03-18T10:52:22;99690.25;;;27.13;nan
49541;BME280;35432;43.566;1.398;2023-03-18T10:56:56;99677.78;;;28.80;nan
49541;BME280;35432;43.566;1.398;2023-03-18T10:59:41;99689.13;;;29.25;nan
49541;BME280;35432;43.566;1.398;2023-03-18T11:02:24;99693.00;;;28.61;nan
49541;BME280;35432;43.566;1.398;2023-03-18T11:05:02;99696.63;;;28.41;nan
49541;BME280;35432;43.566;1.398;2023-03-18T11:07:31;99681.03;;;28.74;nan
49541;BME280;35432;43.566;1.398;2023-03-18T11:10:31;99671.16;;;29.23;nan
49541;BME280;35432;43.566;1.398;2023-03-18T11:12:59;99670.25;;;30.12;nan
49541;BME280;35432;43.566;1.398;2023-03-18T11:15:28;99679.34;;;30.30;nan
49541;BME280;35432;43.566;1.398;2023-03-18T11:17:59;99678.72;;;30.74;nan
49541;BME280;35432;43.566;1.398;2023-03-18T11:20:38;99678.38;;;31.05;nan
49541;BME280;35432;43.566;1.398;2023-03-18T11:23:37;99680.84;;;31.27;nan
49541;BME280;35432;43.566;1.398;2023-03-18T11:26:22;99671.78;;;31.44;nan
49541;BME280;35432;43.566;1.398;2023-03-18T11:28:53;99668.44;;;31.69;nan
49541;BME280;35432;43.566;1.398;2023-03-18T11:31:19;99672.81;;;31.43;nan
49541;BME280;35432;43.566;1.398;2023-03-18T11:33:44;99674.53;;;31.62;nan
49541;BME280;35432;43.566;1.398;2023-03-18T11:36:16;99665.34;;;31.63;nan
49541;BME280;35432;43.566;1.398;2023-03-18T11:39:02;99661.84;;;31.71;nan
49541;BME280;35432;43.566;1.398;2023-03-18T11:41:28;99661.84;;;31.71;nan
49541;BME280;35432;43.566;1.398;2023-03-18T11:44:22;99665.84;;;30.94;nan
49541;BME280;35432;43.566;1.398;2023-03-18T11:47:16;99678.84;;;28.99;nan
49541;BME280;35432;43.566;1.398;2023-03-18T11:50:17;99690.69;;;26.85;nan
49541;BME280;35432;43.566;1.398;2023-03-18T14:11:42;99618.09;;;19.29;46.36
49541;BME280;35432;43.566;1.398;2023-03-18T14:14:39;99618.47;;;19.04;46.75
49541;BME280;35432;43.566;1.398;2023-03-18T14:17:15;99625.97;;;18.96;46.82
49541;BME280;35432;43.566;1.398;2023-03-18T14:19:42;99625.97;;;18.96;46.79
49541;BME280;35432;43.566;1.398;2023-03-18T14:22:30;99630.88;;;18.67;47.38
49541;BME280;35432;43.566;1.398;2023-03-18T14:27:54;99632.22;;;18.58;48.78
49541;BME280;35432;43.566;1.398;2023-03-18T14:33:00;99632.28;;;18.56;48.91
49541;BME280;35432;43.566;1.398;2023-03-18T14:38:24;99620.38;;;18.63;48.90
49541;BME280;35432;43.566;1.398;2023-03-18T14:40:50;99628.19;;;18.49;49.75
49541;BME280;35432;43.566;1.398;2023-03-18T14:43:28;99623.97;;;18.62;49.21
49541;BME280;35432;43.566;1.398;2023-03-18T14:46:02;99619.16;;;18.71;49.29
49541;BME280;35432;43.566;1.398;2023-03-18T14:48:30;99616.34;;;18.74;49.10
49541;BME280;35432;43.566;1.398;2023-03-18T14:50:59;99613.81;;;18.71;49.43
49541;BME280;35432;43.566;1.398;2023-03-18T14:53:46;99621.75;;;18.53;49.67
49541;BME280;35432;43.566;1.398;2023-03-18T14:56:28;99612.75;;;18.36;49.88
49541;BME280;35432;43.566;1.398;2023-03-18T14:58:56;99617.06;;;18.20;50.11
49541;BME280;35432;43.566;1.398;2023-03-18T15:01:24;99614.25;;;18.04;50.67
49541;BME280;35432;43.566;1.398;2023-03-18T15:03:52;99620.59;;;18.01;50.52
49541;BME280;35432;43.566;1.398;2023-03-18T15:06:23;99625.63;;;17.87;51.19
49541;BME280;35432;43.566;1.398;2023-03-18T15:09:01;99622.31;;;17.82;51.05
49541;BME280;35432;43.566;1.398;2023-03-18T15:11:30;99615.72;;;17.70;51.63
49541;BME280;35432;43.566;1.398;2023-03-18T15:14:01;99613.06;;;17.70;51.63
49541;BME280;35432;43.566;1.398;2023-03-18T15:16:28;99614.00;;;17.69;51.84
49541;BME280;35432;43.566;1.398;2023-03-18T15:18:57;99610.53;;;17.67;51.79
49541;BME280;35432;43.566;1.398;2023-03-18T15:21:31;99605.81;;;17.53;52.32
49541;BME280;35432;43.566;1.398;2023-03-18T15:24:05;99601.03;;;17.40;52.58
49541;BME280;35432;43.566;1.398;2023-03-18T15:26:39;99600.56;;;17.30;53.26
49541;BME280;35432;43.566;1.398;2023-03-18T15:29:28;99588.31;;;17.26;52.99
49541;BME280;35432;43.566;1.398;2023-03-18T15:32:19;99607.34;;;17.17;53.13
49541;BME280;35432;43.566;1.398;2023-03-18T15:34:55;99623.03;;;17.23;53.07
49541;BME280;35432;43.566;1.398;2023-03-18T15:40:15;99636.97;;;17.30;53.54
49541;BME280;35432;43.566;1.398;2023-03-18T15:42:44;99626.53;;;17.24;53.95
49541;BME280;35432;43.566;1.398;2023-03-18T15:45:17;99642.72;;;17.19;54.38
49541;BME280;35432;43.566;1.398;2023-03-18T15:47:43;99648.63;;;17.05;54.78
49541;BME280;35432;43.566;1.398;2023-03-18T15:52:46;99654.66;;;16.86;55.05
49541;BME280;35432;43.566;1.398;2023-03-18T15:55:24;99655.03;;;16.99;55.53
49541;BME280;35432;43.566;1.398;2023-03-18T15:57:52;99656.47;;;17.08;54.92
49541;BME280;35432;43.566;1.398;2023-03-18T16:00:18;99654.78;;;17.05;55.06
49541;BME280;35432;43.566;1.398;2023-03-18T16:02:44;99664.72;;;17.02;55.10
49541;BME280;35432;43.566;1.398;2023-03-18T16:05:22;99671.22;;;16.93;55.20
49541;BME280;35432;43.566;1.398;2023-03-18T16:07:48;99676.22;;;16.78;55.32
49541;BME280;35432;43.566;1.398;2023-03-18T16:10:15;99681.16;;;16.65;55.65
49541;BME280;35432;43.566;1.398;2023-03-18T16:12:48;99696.88;;;16.48;56.01
49541;BME280;35432;43.566;1.398;2023-03-18T16:15:21;99722.19;;;16.34;56.23
49541;BME280;35432;43.566;1.398;2023-03-18T16:17:49;99748.53;;;16.41;56.11
49541;BME280;35432;43.566;1.398;2023-03-18T16:22:47;99784.22;;;16.33;55.24
49541;BME280;35432;43.566;1.398;2023-03-18T16:25:12;99789.72;;;16.02;55.32
49541;BME280;35432;43.566;1.398;2023-03-18T16:27:43;99788.44;;;15.60;55.50
49541;BME280;35432;43.566;1.398;2023-03-18T16:30:28;99782.34;;;15.28;56.03
49541;BME280;35432;43.566;1.398;2023-03-18T16:32:55;99774.44;;;14.98;56.84
49541;BME280;35432;43.566;1.398;2023-03-18T16:35:32;99763.44;;;14.82;57.80
49541;BME280;35432;43.566;1.398;2023-03-18T16:37:58;99752.91;;;14.47;59.42
49541;BME280;35432;43.566;1.398;2023-03-18T16:40:27;99751.91;;;14.51;60.07
49541;BME280;35432;43.566;1.398;2023-03-18T16:42:52;99749.03;;;14.27;60.23
49541;BME280;35432;43.566;1.398;2023-03-18T16:45:29;99750.22;;;14.17;59.81